createdAt,value
2019-05-10T00:00:30.053Z,9.18
2019-05-10T00:03:19.729Z,9.15
2019-05-10T00:06:09.155Z,9.17
2019-05-10T00:08:45.786Z,9.17
2019-05-10T00:11:41.374Z,9.17
2019-05-10T00:14:39.113Z,9.11
2019-05-10T00:17:20.823Z,9.07
2019-05-10T00:19:52.963Z,9.04
2019-05-10T00:22:24.844Z,8.94
2019-05-10T00:25:03.988Z,8.87
2019-05-10T00:27:30.417Z,8.88
2019-05-10T00:30:02.325Z,8.92
2019-05-10T00:32:35.428Z,8.93
2019-05-10T00:35:07.518Z,8.77
2019-05-10T00:37:39.393Z,8.63
2019-05-10T00:40:11.224Z,8.57
2019-05-10T00:42:43.067Z,8.59
2019-05-10T00:45:16.044Z,8.69
2019-05-10T00:47:47.936Z,8.58
2019-05-10T00:50:19.856Z,8.55
2019-05-10T00:52:52.810Z,8.43
2019-05-10T00:55:24.672Z,8.33
2019-05-10T00:57:56.529Z,8.30
2019-05-10T01:00:28.494Z,8.27
2019-05-10T01:03:00.276Z,8.27
2019-05-10T01:05:32.156Z,8.24
2019-05-10T01:08:03.948Z,8.32
2019-05-10T01:10:35.812Z,8.25
2019-05-10T01:13:07.620Z,8.15
2019-05-10T01:15:40.825Z,8.18
2019-05-10T01:18:12.712Z,8.23
2019-05-10T01:20:44.573Z,8.27
2019-05-10T01:23:16.387Z,8.33
2019-05-10T01:25:49.264Z,8.25
2019-05-10T01:28:21.045Z,8.08
2019-05-10T01:30:54.455Z,8.04
2019-05-10T01:33:26.339Z,8.11
2019-05-10T01:35:59.546Z,8.16
2019-05-10T01:38:31.361Z,8.18
2019-05-10T01:41:03.226Z,8.24
2019-05-10T01:43:35.221Z,8.18
2019-05-10T01:46:08.411Z,8.17
2019-05-10T01:48:41.556Z,8.06
2019-05-10T01:51:13.408Z,8.08
2019-05-10T01:53:45.271Z,8.10
2019-05-10T01:56:17.079Z,8.13
2019-05-10T01:58:49.195Z,8.13
2019-05-10T02:01:21.069Z,8.17
2019-05-10T02:03:52.941Z,8.16
2019-05-10T02:06:24.827Z,8.05
2019-05-10T02:08:56.677Z,7.90
2019-05-10T02:11:28.647Z,7.90
2019-05-10T02:14:00.547Z,7.90
2019-05-10T02:16:32.419Z,7.88
2019-05-10T02:19:04.268Z,7.85
2019-05-10T02:21:36.141Z,7.83
2019-05-10T02:24:08.028Z,7.79
2019-05-10T02:26:39.809Z,7.85
2019-05-10T02:29:12.678Z,7.75
2019-05-10T02:31:44.565Z,7.76
2019-05-10T02:34:18.536Z,7.64
2019-05-10T02:36:50.406Z,7.65
2019-05-10T02:39:22.296Z,7.73
2019-05-10T02:41:54.091Z,7.83
2019-05-10T02:44:25.984Z,7.75
2019-05-10T02:46:57.832Z,7.64
2019-05-10T02:49:29.811Z,7.66
2019-05-10T02:52:01.617Z,7.66
2019-05-10T02:54:33.496Z,7.60
2019-05-10T02:57:05.371Z,7.68
2019-05-10T02:59:37.238Z,7.63
2019-05-10T03:02:09.164Z,7.63
2019-05-10T03:04:41.042Z,7.56
2019-05-10T03:07:12.924Z,7.45
2019-05-10T03:09:47.513Z,7.51
2019-05-10T03:12:24.172Z,7.41
2019-05-10T03:14:57.492Z,7.30
2019-05-10T03:17:29.973Z,7.37
2019-05-10T03:20:01.965Z,7.44
2019-05-10T03:22:38.994Z,7.43
2019-05-10T03:25:10.969Z,7.42
2019-05-10T03:27:42.871Z,7.38
2019-05-10T03:30:15.784Z,7.43
2019-05-10T03:32:47.629Z,7.39
2019-05-10T03:35:19.770Z,7.42
2019-05-10T03:37:51.697Z,7.38
2019-05-10T03:40:23.560Z,7.40
2019-05-10T03:42:55.439Z,7.32
2019-05-10T03:45:27.229Z,7.34
2019-05-10T03:47:59.119Z,7.35
2019-05-10T03:50:31.010Z,7.39
2019-05-10T03:53:02.905Z,7.38
2019-05-10T03:55:34.814Z,7.35
2019-05-10T03:58:06.692Z,7.28
2019-05-10T04:00:38.506Z,7.29
2019-05-10T04:03:10.598Z,7.29
2019-05-10T04:05:42.619Z,7.29
2019-05-10T04:08:14.433Z,7.36
2019-05-10T04:10:46.287Z,7.33
2019-05-10T04:13:18.234Z,7.41
2019-05-10T04:15:50.238Z,7.41
2019-05-10T04:18:22.294Z,7.34
2019-05-10T04:20:55.171Z,7.33
2019-05-10T04:23:28.066Z,7.36
2019-05-10T04:25:59.930Z,7.41
2019-05-10T04:28:31.817Z,7.45
2019-05-10T04:31:03.766Z,7.47
2019-05-10T04:33:35.616Z,7.55
2019-05-10T04:36:12.010Z,7.52
2019-05-10T04:38:41.307Z,7.54
2019-05-10T04:41:13.629Z,7.65
2019-05-10T04:43:45.444Z,7.73
2019-05-10T04:46:17.326Z,7.72
2019-05-10T04:48:49.268Z,7.77
2019-05-10T04:51:21.116Z,7.84
2019-05-10T04:53:53.145Z,7.83
2019-05-10T04:56:25.151Z,7.95
2019-05-10T04:58:57.007Z,7.97
2019-05-10T05:01:28.813Z,8.00
2019-05-10T05:04:00.706Z,8.00
2019-05-10T05:06:32.900Z,7.96
2019-05-10T05:09:06.559Z,8.11
2019-05-10T05:11:38.499Z,8.20
2019-05-10T05:14:10.323Z,8.31
2019-05-10T05:16:42.120Z,8.29
2019-05-10T05:19:14.041Z,8.30
2019-05-10T05:21:45.910Z,8.43
2019-05-10T05:24:23.004Z,8.46
2019-05-10T05:26:51.397Z,8.61
2019-05-10T05:29:23.340Z,8.66
2019-05-10T05:32:01.442Z,8.73
2019-05-10T05:34:28.807Z,8.76
2019-05-10T05:37:02.057Z,8.85
2019-05-10T05:39:33.932Z,8.91
2019-05-10T05:42:05.739Z,8.91
2019-05-10T05:44:37.532Z,8.94
2019-05-10T05:47:09.411Z,9.07
2019-05-10T05:49:41.274Z,9.15
2019-05-10T05:52:13.061Z,9.21
2019-05-10T05:54:44.932Z,9.29
2019-05-10T05:57:16.726Z,9.32
2019-05-10T05:59:49.178Z,9.41
2019-05-10T06:02:21.157Z,9.46
2019-05-10T06:04:54.050Z,9.57
2019-05-10T06:07:31.245Z,9.60
2019-05-10T06:09:59.623Z,9.70
2019-05-10T06:12:31.462Z,9.81
2019-05-10T06:15:03.366Z,9.94
2019-05-10T06:17:35.330Z,10.00
2019-05-10T06:20:07.768Z,10.06
2019-05-10T06:22:45.619Z,10.08
2019-05-10T06:25:13.546Z,10.16
2019-05-10T06:27:45.441Z,10.26
2019-05-10T06:30:17.442Z,10.26
2019-05-10T06:32:53.370Z,10.35
2019-05-10T06:35:23.090Z,10.37
2019-05-10T06:37:54.955Z,10.50
2019-05-10T06:40:35.820Z,10.56
2019-05-10T06:43:00.327Z,10.61
2019-05-10T06:45:32.261Z,10.68
2019-05-10T06:48:04.130Z,10.77
2019-05-10T06:50:35.953Z,10.82
2019-05-10T06:53:10.810Z,10.84
2019-05-10T06:55:42.508Z,10.92
2019-05-10T06:58:14.404Z,11.07
2019-05-10T07:00:48.316Z,11.16
2019-05-10T07:03:20.776Z,11.31
2019-05-10T07:05:53.546Z,11.37
2019-05-10T07:08:25.423Z,11.44
2019-05-10T07:10:57.245Z,11.48
2019-05-10T07:13:29.124Z,11.60
2019-05-10T07:16:01.003Z,11.66
2019-05-10T07:18:32.879Z,11.73
2019-05-10T07:21:06.702Z,11.83
2019-05-10T07:23:39.149Z,11.98
2019-05-10T07:26:16.984Z,12.06
2019-05-10T07:28:45.387Z,12.20
2019-05-10T07:31:17.502Z,12.25
2019-05-10T07:33:49.309Z,12.37
2019-05-10T07:36:27.487Z,12.43
2019-05-10T07:38:56.918Z,12.43
2019-05-10T07:41:29.104Z,12.57
2019-05-10T07:44:08.035Z,12.64
2019-05-10T07:46:40.217Z,12.77
2019-05-10T07:49:08.498Z,12.77
2019-05-10T07:51:41.376Z,12.83
2019-05-10T07:54:13.235Z,12.96
2019-05-10T07:56:46.122Z,13.05
2019-05-10T07:59:22.005Z,13.20
2019-05-10T08:01:52.209Z,13.37
2019-05-10T08:04:28.984Z,13.53
2019-05-10T08:06:59.679Z,13.72
2019-05-10T08:09:31.774Z,13.74
2019-05-10T08:12:05.303Z,13.74
2019-05-10T08:14:39.386Z,13.74
2019-05-10T08:17:10.866Z,13.77
2019-05-10T08:19:43.716Z,13.81
2019-05-10T08:22:15.569Z,13.89
2019-05-10T08:24:52.702Z,14.07
2019-05-10T08:27:22.979Z,14.28
2019-05-10T08:30:17.967Z,14.43
2019-05-10T08:32:30.075Z,14.53
2019-05-10T08:35:05.094Z,14.63
2019-05-10T08:37:37.753Z,14.80
2019-05-10T08:40:09.376Z,15.01
2019-05-10T08:42:48.048Z,15.18
2019-05-10T08:45:14.998Z,15.23
2019-05-10T08:47:46.802Z,15.29
2019-05-10T08:50:34.474Z,15.46
2019-05-10T08:52:56.714Z,15.58
2019-05-10T08:55:25.849Z,15.75
2019-05-10T08:57:57.736Z,15.59
2019-05-10T09:00:48.932Z,15.66
2019-05-10T09:03:09.561Z,15.78
2019-05-10T09:05:39.793Z,15.92
2019-05-10T09:08:13.581Z,16.01
2019-05-10T09:10:43.874Z,16.19
2019-05-10T09:13:15.871Z,16.49
2019-05-10T09:15:51.916Z,16.62
2019-05-10T09:18:23.030Z,16.81
2019-05-10T09:21:02.623Z,16.93
2019-05-10T09:23:28.410Z,16.69
2019-05-10T09:26:03.629Z,17.02
2019-05-10T09:28:33.954Z,17.28
2019-05-10T09:31:17.048Z,17.27
2019-05-10T09:33:40.980Z,17.56
2019-05-10T09:36:12.895Z,17.67
2019-05-10T09:38:46.324Z,17.82
2019-05-10T09:41:19.346Z,17.84
2019-05-10T09:43:53.567Z,17.92
2019-05-10T09:46:24.819Z,17.89
2019-05-10T09:49:06.077Z,17.83
2019-05-10T09:51:30.944Z,17.66
2019-05-10T09:54:03.621Z,17.30
2019-05-10T09:56:39.486Z,17.27
2019-05-10T09:59:09.095Z,17.14
2019-05-10T10:01:40.967Z,17.11
2019-05-10T10:04:13.842Z,16.96
2019-05-10T10:06:48.343Z,16.76
2019-05-10T10:09:24.569Z,16.64
2019-05-10T10:12:00.808Z,16.52
2019-05-10T10:14:38.124Z,16.57
2019-05-10T10:17:04.035Z,16.58
2019-05-10T10:19:40.251Z,16.81
2019-05-10T10:22:11.074Z,17.01
2019-05-10T10:24:43.037Z,16.97
2019-05-10T10:27:17.065Z,16.89
2019-05-10T10:29:48.517Z,16.79
2019-05-10T10:32:24.608Z,16.73
2019-05-10T10:34:54.806Z,16.61
2019-05-10T10:37:29.102Z,16.59
2019-05-10T10:40:05.355Z,16.56
2019-05-10T10:42:38.043Z,16.65
2019-05-10T10:45:09.411Z,16.58
2019-05-10T10:47:42.622Z,16.65
2019-05-10T10:50:17.080Z,16.84
2019-05-10T10:52:48.404Z,16.92
2019-05-10T10:55:20.418Z,17.02
2019-05-10T10:57:53.481Z,17.34
2019-05-10T11:00:38.462Z,17.75
2019-05-10T11:03:09.078Z,17.98
2019-05-10T11:05:40.965Z,17.76
2019-05-10T11:08:12.813Z,17.39
2019-05-10T11:10:44.677Z,17.08
2019-05-10T11:13:23.779Z,17.18
2019-05-10T11:15:51.624Z,16.92
2019-05-10T11:18:23.946Z,16.81
2019-05-10T11:20:55.817Z,16.78
2019-05-10T11:23:34.066Z,16.71
2019-05-10T11:26:01.565Z,16.53
2019-05-10T11:28:38.541Z,16.43
2019-05-10T11:31:07.969Z,16.52
2019-05-10T11:33:41.554Z,16.64
2019-05-10T11:36:13.402Z,16.70
2019-05-10T11:38:47.070Z,16.93
2019-05-10T11:41:24.204Z,17.10
2019-05-10T11:43:57.938Z,17.01
2019-05-10T11:46:28.072Z,17.18
2019-05-10T11:49:01.787Z,17.40
2019-05-10T11:51:34.307Z,17.54
2019-05-10T11:54:06.746Z,17.77
2019-05-10T11:56:41.090Z,18.11
2019-05-10T11:59:16.502Z,18.60
2019-05-10T12:01:55.036Z,18.44
2019-05-10T12:04:35.659Z,18.19
2019-05-10T12:06:53.510Z,17.94
2019-05-10T12:09:25.626Z,18.28
2019-05-10T12:11:57.755Z,18.55
2019-05-10T12:14:29.728Z,18.36
2019-05-10T12:17:05.825Z,18.30
2019-05-10T12:19:44.516Z,18.12
2019-05-10T12:22:15.935Z,18.52
2019-05-10T12:25:00.510Z,18.57
2019-05-10T12:27:28.551Z,18.67
2019-05-10T12:29:59.531Z,19.06
2019-05-10T12:32:32.066Z,19.18
2019-05-10T12:35:01.493Z,18.84
2019-05-10T12:37:34.534Z,19.11
2019-05-10T12:40:11.978Z,18.72
2019-05-10T12:42:41.821Z,18.56
2019-05-10T12:45:13.726Z,18.42
2019-05-10T12:47:45.961Z,18.44
2019-05-10T12:50:18.541Z,18.67
2019-05-10T12:53:03.810Z,18.80
2019-05-10T12:55:24.333Z,18.51
2019-05-10T12:57:56.293Z,18.61
2019-05-10T13:00:28.165Z,18.43
2019-05-10T13:03:12.376Z,18.54
2019-05-10T13:05:34.320Z,18.37
2019-05-10T13:08:08.956Z,18.29
2019-05-10T13:10:43.288Z,18.16
2019-05-10T13:13:17.491Z,17.98
2019-05-10T13:15:48.651Z,18.02
2019-05-10T13:18:23.089Z,18.18
2019-05-10T13:20:54.342Z,18.38
2019-05-10T13:23:26.258Z,18.45
2019-05-10T13:25:58.206Z,18.32
2019-05-10T13:28:30.148Z,18.27
2019-05-10T13:31:05.534Z,18.27
2019-05-10T13:33:41.797Z,18.30
2019-05-10T13:36:09.318Z,18.21
2019-05-10T13:38:43.848Z,18.31
2019-05-10T13:41:18.052Z,18.36
2019-05-10T13:43:49.409Z,18.27
2019-05-10T13:46:21.692Z,18.34
2019-05-10T13:48:53.584Z,18.40
2019-05-10T13:51:26.464Z,18.52
2019-05-10T13:53:58.999Z,18.68
2019-05-10T13:56:31.876Z,18.71
2019-05-10T13:59:15.756Z,18.90
2019-05-10T14:01:37.289Z,19.02
2019-05-10T14:04:09.159Z,18.87
2019-05-10T14:06:41.038Z,18.56
2019-05-10T14:09:12.850Z,18.44
2019-05-10T14:11:47.002Z,18.19
2019-05-10T14:14:20.374Z,18.03
2019-05-10T14:16:51.818Z,18.15
2019-05-10T14:19:25.607Z,18.41
2019-05-10T14:21:58.833Z,18.43
2019-05-10T14:24:30.978Z,18.38
2019-05-10T14:27:02.839Z,18.47
2019-05-10T14:29:36.911Z,18.32
2019-05-10T14:32:09.775Z,18.36
2019-05-10T14:34:44.503Z,18.17
2019-05-10T14:37:19.977Z,17.96
2019-05-10T14:39:53.393Z,17.75
2019-05-10T14:42:30.919Z,17.53
2019-05-10T14:44:58.876Z,17.43
2019-05-10T14:47:30.743Z,17.34
2019-05-10T14:50:02.539Z,17.55
2019-05-10T14:52:34.392Z,18.32
2019-05-10T14:55:07.000Z,18.40
2019-05-10T14:57:38.883Z,18.40
2019-05-10T15:00:10.816Z,18.45
2019-05-10T15:02:43.674Z,18.91
2019-05-10T15:05:18.002Z,19.33
2019-05-10T15:07:51.212Z,19.96
2019-05-10T15:10:22.739Z,20.74
2019-05-10T15:12:54.614Z,20.36
2019-05-10T15:15:31.251Z,19.66
2019-05-10T15:18:01.911Z,19.02
2019-05-10T15:20:35.802Z,19.30
2019-05-10T15:23:07.167Z,18.82
2019-05-10T15:25:55.432Z,18.26
2019-05-10T15:28:12.557Z,17.71
2019-05-10T15:30:45.812Z,17.43
2019-05-10T15:33:18.037Z,17.04
2019-05-10T15:35:51.724Z,16.65
2019-05-10T15:38:23.514Z,16.86
2019-05-10T15:40:55.390Z,17.70
2019-05-10T15:43:27.261Z,18.99
2019-05-10T15:45:59.228Z,18.48
2019-05-10T15:48:31.022Z,17.95
2019-05-10T15:51:02.835Z,17.38
2019-05-10T15:53:34.699Z,17.00
2019-05-10T15:56:06.526Z,16.70
2019-05-10T15:58:42.064Z,16.50
2019-05-10T16:01:14.407Z,16.26
2019-05-10T16:03:45.579Z,16.17
2019-05-10T16:06:17.423Z,15.83
2019-05-10T16:08:49.316Z,15.82
2019-05-10T16:11:21.198Z,16.38
2019-05-10T16:13:54.870Z,16.39
2019-05-10T16:16:36.984Z,16.09
2019-05-10T16:19:12.906Z,16.25
2019-05-10T16:21:46.758Z,16.03
2019-05-10T16:24:24.930Z,15.93
2019-05-10T16:26:54.654Z,15.83
2019-05-10T16:29:24.141Z,15.84
2019-05-10T16:31:56.456Z,15.81
2019-05-10T16:34:32.238Z,15.70
2019-05-10T16:37:02.056Z,15.72
2019-05-10T16:39:34.220Z,15.60
2019-05-10T16:42:06.416Z,15.57
2019-05-10T16:44:38.468Z,15.50
2019-05-10T16:47:10.453Z,15.41
2019-05-10T16:49:47.612Z,15.43
2019-05-10T16:52:26.012Z,15.35
2019-05-10T16:54:57.747Z,15.21
2019-05-10T16:57:31.903Z,15.12
2019-05-10T17:00:08.242Z,15.09
2019-05-10T17:02:41.861Z,15.15
2019-05-10T17:05:15.076Z,15.08
2019-05-10T17:07:43.927Z,15.04
2019-05-10T17:10:15.716Z,15.10
2019-05-10T17:12:47.921Z,15.07
2019-05-10T17:15:19.864Z,15.13
2019-05-10T17:17:51.816Z,15.16
2019-05-10T17:20:23.765Z,15.08
2019-05-10T17:23:08.173Z,15.16
2019-05-10T17:25:29.306Z,15.20
2019-05-10T17:28:02.124Z,15.33
2019-05-10T17:30:36.588Z,15.39
2019-05-10T17:33:10.899Z,15.36
2019-05-10T17:35:44.699Z,15.37
2019-05-10T17:38:19.681Z,15.38
2019-05-10T17:40:53.674Z,15.30
2019-05-10T17:43:26.037Z,15.26
2019-05-10T17:45:58.138Z,15.31
2019-05-10T17:48:30.058Z,15.28
2019-05-10T17:51:02.101Z,15.31
2019-05-10T17:53:34.109Z,15.35
2019-05-10T17:56:05.976Z,15.32
2019-05-10T17:58:38.827Z,15.20
2019-05-10T18:01:12.202Z,15.06
2019-05-10T18:03:44.548Z,14.95
2019-05-10T18:06:24.049Z,14.87
2019-05-10T18:08:49.923Z,14.82
2019-05-10T18:11:22.078Z,14.79
2019-05-10T18:13:54.029Z,14.76
2019-05-10T18:16:25.837Z,14.83
2019-05-10T18:18:57.799Z,14.84
2019-05-10T18:21:29.669Z,14.85
2019-05-10T18:24:01.668Z,14.92
2019-05-10T18:26:34.208Z,14.94
2019-05-10T18:29:07.072Z,14.93
2019-05-10T18:31:40.618Z,14.95
2019-05-10T18:34:14.404Z,14.96
2019-05-10T18:36:51.597Z,14.93
2019-05-10T18:39:19.878Z,14.94
2019-05-10T18:41:51.779Z,14.94
2019-05-10T18:44:23.674Z,14.99
2019-05-10T18:46:55.700Z,15.02
2019-05-10T18:49:27.588Z,15.04
2019-05-10T18:52:06.335Z,14.91
2019-05-10T18:54:32.978Z,14.89
2019-05-10T18:57:11.574Z,14.88
2019-05-10T18:59:45.339Z,14.93
2019-05-10T19:02:17.779Z,14.98
2019-05-10T19:04:52.207Z,14.98
2019-05-10T19:07:22.470Z,14.93
2019-05-10T19:09:54.395Z,14.94
2019-05-10T19:12:26.486Z,14.88
2019-05-10T19:15:02.369Z,14.73
2019-05-10T19:17:32.318Z,14.62
2019-05-10T19:20:09.344Z,14.58
2019-05-10T19:22:41.364Z,14.50
2019-05-10T19:25:14.054Z,14.42
2019-05-10T19:27:50.535Z,14.44
2019-05-10T19:30:20.618Z,14.32
2019-05-10T19:32:56.474Z,14.34
2019-05-10T19:35:34.869Z,14.19
2019-05-10T19:38:05.567Z,14.16
2019-05-10T19:40:38.705Z,14.15
2019-05-10T19:43:15.143Z,14.14
2019-05-10T19:45:44.644Z,14.08
2019-05-10T19:48:16.550Z,14.07
2019-05-10T19:50:48.449Z,14.01
2019-05-10T19:53:20.342Z,14.03
2019-05-10T19:55:57.302Z,14.10
2019-05-10T19:58:26.461Z,14.10
2019-05-10T20:00:59.485Z,14.02
2019-05-10T20:03:31.438Z,14.08
2019-05-10T20:06:03.435Z,13.97
2019-05-10T20:08:35.593Z,13.98
2019-05-10T20:11:07.482Z,14.00
2019-05-10T20:13:39.407Z,13.94
2019-05-10T20:16:11.286Z,13.93
2019-05-10T20:18:43.090Z,13.90
2019-05-10T20:21:15.014Z,13.90
2019-05-10T20:23:46.922Z,13.90
2019-05-10T20:26:20.384Z,13.92
2019-05-10T20:28:52.931Z,13.96
2019-05-10T20:31:24.954Z,13.92
2019-05-10T20:33:56.922Z,13.85
2019-05-10T20:36:28.811Z,13.86
2019-05-10T20:39:01.067Z,13.94
2019-05-10T20:41:34.681Z,13.86
2019-05-10T20:44:08.204Z,13.75
2019-05-10T20:46:40.873Z,13.73
2019-05-10T20:49:13.658Z,13.81
2019-05-10T20:51:45.570Z,13.88
2019-05-10T20:54:17.449Z,13.87
2019-05-10T20:56:49.354Z,13.81
2019-05-10T20:59:21.720Z,13.83
2019-05-10T21:01:54.017Z,13.82
2019-05-10T21:04:25.968Z,13.85
2019-05-10T21:06:59.084Z,13.86
2019-05-10T21:09:30.980Z,13.93
2019-05-10T21:12:02.884Z,13.99
2019-05-10T21:14:34.765Z,14.02
2019-05-10T21:17:08.632Z,14.11
2019-05-10T21:19:42.374Z,14.10
2019-05-10T21:22:15.864Z,14.07
2019-05-10T21:24:47.806Z,14.06
2019-05-10T21:27:20.723Z,14.08
2019-05-10T21:29:54.540Z,13.99
2019-05-10T21:32:26.417Z,13.94
2019-05-10T21:34:58.298Z,13.85
2019-05-10T21:37:30.187Z,13.79
2019-05-10T21:40:02.056Z,13.77
2019-05-10T21:42:33.929Z,13.58
2019-05-10T21:45:05.835Z,13.56
2019-05-10T21:47:50.572Z,13.44
2019-05-10T21:50:11.298Z,13.35
2019-05-10T21:52:43.274Z,13.22
2019-05-10T21:55:15.148Z,13.14
2019-05-10T21:57:47.046Z,13.07
2019-05-10T22:00:20.780Z,13.01
2019-05-10T22:02:54.468Z,12.99
2019-05-10T22:05:26.400Z,12.88
2019-05-10T22:07:58.427Z,12.88
2019-05-10T22:10:30.301Z,12.82
2019-05-10T22:13:02.185Z,12.77
2019-05-10T22:15:34.073Z,12.71
2019-05-10T22:18:05.983Z,12.55
2019-05-10T22:20:37.838Z,12.43
2019-05-10T22:23:09.958Z,12.37
2019-05-10T22:25:41.767Z,12.35
2019-05-10T22:28:13.671Z,12.38
2019-05-10T22:30:45.656Z,12.31
2019-05-10T22:33:17.471Z,12.26
2019-05-10T22:35:49.345Z,12.22
2019-05-10T22:38:21.248Z,12.22
2019-05-10T22:40:53.369Z,12.18
2019-05-10T22:43:25.405Z,12.15
2019-05-10T22:45:57.288Z,12.13
2019-05-10T22:48:29.176Z,12.03
2019-05-10T22:51:01.054Z,12.04
2019-05-10T22:53:32.936Z,12.13
2019-05-10T22:56:04.753Z,12.08
2019-05-10T22:58:36.640Z,12.10
2019-05-10T23:01:08.652Z,12.10
2019-05-10T23:03:40.943Z,12.11
2019-05-10T23:06:13.016Z,12.11
2019-05-10T23:08:44.918Z,12.04
2019-05-10T23:11:16.888Z,12.01
2019-05-10T23:13:48.882Z,11.94
2019-05-10T23:16:20.878Z,11.93
2019-05-10T23:18:52.786Z,11.90
2019-05-10T23:21:24.754Z,11.82
2019-05-10T23:23:56.640Z,11.76
2019-05-10T23:26:28.526Z,11.70
2019-05-10T23:29:00.423Z,11.67
2019-05-10T23:31:35.466Z,11.68
2019-05-10T23:34:05.964Z,11.59
2019-05-10T23:36:37.952Z,11.56
2019-05-10T23:39:09.833Z,11.47
2019-05-10T23:41:41.730Z,11.47
2019-05-10T23:44:13.589Z,11.34
2019-05-10T23:46:45.467Z,11.29
2019-05-10T23:49:17.369Z,11.29
2019-05-10T23:51:49.257Z,11.23
2019-05-10T23:54:21.162Z,11.19
2019-05-10T23:56:53.379Z,11.14
2019-05-10T23:59:25.391Z,11.05
